Busk, Ukraine
Current Conditions -  °F | °C
As of 3:30 PM on Thursday 23 Oct 2014 (Local Time) from UKLL Reporting Station
Light Rain Light Rain  
Wind Chill: 32°   Ceiling: 400
Heat Index: 41°   Visibility: 2.4mi
Dew Point: 39°   Wind: 18mph
Humidity: 93%   Direction: 60°ENE
Pressure: 29.94"   Gusts: NA
Location:  49.97°N, 24.63°E
Report Text: UKLL 231230Z 06008MPS 3900 -RA BR OVC004 05/04 Q1014 13220365 TEMPO 05010G15MPS
Loading
Personal Weather Stations






























Interactive Weather Map
Tropical Storm Tracking
New forecast layout! Learn more

10-Day Weather Forecast

Advertisements
Track Severe Weather on mobile